Time;durP1;ratioP1;P1;durP2;ratioP2;P2;SDS_P1;SDS_P2;PMS_P1;PMS_P2;Temp;Humidity;BMP_temperature;BMP_pressure;BME280_temperature;BME280_humidity;BME280_pressure;Samples;Min_cycle;Max_cycle;Signal;HPM_P1;HPM_P2
2022/11/03 00:01:45;;;;;;;;;;;;;;;11.70;87.11;101277.66;4962844;28;20195;-74
2022/11/03 00:04:11;;;;;;;;;;;;;;;11.68;86.82;101274.25;4980032;28;20291;-76
2022/11/03 00:06:38;;;;;;;;;;;;;;;11.70;87.33;101271.56;4979730;28;19918;-74
2022/11/03 00:09:04;;;;;;;;;;;;;;;11.71;87.69;101262.75;4979704;28;19910;-74
2022/11/03 00:11:33;;;;;;;;;;;;;;;11.71;88.19;101266.25;4980074;28;19918;-74
2022/11/03 00:13:59;;;;;;;;;;;;;;;11.71;87.80;101265.38;4979485;28;19924;-74
2022/11/03 00:16:24;;;;;;;;;;;;;;;11.70;87.53;101259.28;4979712;28;19922;-74
2022/11/03 00:18:50;;;;;;;;;;;;;;;11.69;87.54;101254.94;4971428;28;19925;-74
2022/11/03 00:21:15;;;;;;;;;;;;;;;11.70;87.54;101251.41;4978893;28;19910;-74
2022/11/03 00:23:41;;;;;;;;;;;;;;;11.72;88.41;101243.50;4980420;28;19922;-74
2022/11/03 00:26:07;;;;;;;;;;;;;;;11.71;88.24;101240.03;4997373;28;19914;-74
2022/11/03 00:28:32;;;;;;;;;;;;;;;11.71;88.29;101245.28;4990454;28;19956;-74
2022/11/03 00:30:58;;;;;;;;;;;;;;;11.71;88.02;101240.03;4980179;28;20197;-74
2022/11/03 00:33:26;;;;;;;;;;;;;;;11.71;88.09;101239.16;4962708;28;19922;-74
2022/11/03 00:36:00;;;;;;;;;;;;;;;11.70;87.95;101238.31;4981119;28;19914;-74
2022/11/03 00:38:25;;;;;;;;;;;;;;;11.69;87.36;101236.56;4980285;28;19922;-74
2022/11/03 00:40:55;;;;;;;;;;;;;;;11.70;87.88;101235.69;4991269;28;19914;-74
2022/11/03 00:43:21;;;;;;;;;;;;;;;11.71;88.20;101233.91;4996269;28;19922;-74
2022/11/03 00:45:47;;;;;;;;;;;;;;;11.71;88.03;101236.53;4979654;28;19969;-74
2022/11/03 00:48:28;;;;;;;;;;;;;;;11.69;87.79;101228.72;4962624;28;20240;-74
2022/11/03 00:50:53;;;;;;;;;;;;;;;11.69;88.13;101223.47;4970647;28;19941;-74
2022/11/03 00:53:18;;;;;;;;;;;;;;;11.70;88.19;101234.84;4998491;28;20279;-74
2022/11/03 00:55:47;;;;;;;;;;;;;;;11.68;88.27;101219.16;4975676;28;19941;-74
2022/11/03 00:58:13;;;;;;;;;;;;;;;11.70;88.61;101214.69;4962452;28;19918;-74
2022/11/03 01:00:38;;;;;;;;;;;;;;;11.69;88.00;101210.34;4983033;28;19942;-74
2022/11/03 01:03:03;;;;;;;;;;;;;;;11.69;88.27;101202.47;4965718;28;20282;-74
2022/11/03 01:08:13;;;;;;;;;;;;;;;11.71;89.11;101208.53;4979511;28;20489;-74
2022/11/03 01:11:42;;;;;;;;;;;;;;;11.71;89.03;101213.78;4962856;28;19981;-74
2022/11/03 01:13:23;;;;;;;;;;;;;;;11.72;89.18;101204.97;4980260;28;19949;-74
2022/11/03 01:15:49;;;;;;;;;;;;;;;11.73;89.00;101208.44;4980632;28;20232;-74
2022/11/03 01:18:14;;;;;;;;;;;;;;;11.71;88.16;101205.91;4998590;28;20078;-74
2022/11/03 01:20:39;;;;;;;;;;;;;;;11.70;88.49;101206.81;4979139;28;19917;-74
2022/11/03 01:23:05;;;;;;;;;;;;;;;11.70;88.52;101201.56;4979050;28;19961;-74
2022/11/03 01:25:30;;;;;;;;;;;;;;;11.70;88.78;101201.56;4961891;28;20221;-74
2022/11/03 01:27:55;;;;;;;;;;;;;;;11.72;89.04;101188.41;4979316;28;20194;-74
2022/11/03 01:30:20;;;;;;;;;;;;;;;11.72;89.42;101196.28;4995348;28;20104;-74
2022/11/03 01:32:46;;;;;;;;;;;;;;;11.71;89.53;101189.28;4980070;28;20160;-74
2022/11/03 01:35:11;;;;;;;;;;;;;;;11.72;89.16;101183.16;4987123;28;19918;-75
2022/11/03 01:37:37;;;;;;;;;;;;;;;11.71;88.71;101182.31;4979958;28;19965;-74
2022/11/03 01:40:02;;;;;;;;;;;;;;;11.71;88.26;101181.44;4945789;28;19910;-74
2022/11/03 01:42:27;;;;;;;;;;;;;;;11.72;88.75;101172.66;4970207;28;19921;-74
2022/11/03 01:44:52;;;;;;;;;;;;;;;11.71;89.42;101181.44;4998201;28;19918;-74
2022/11/03 01:47:24;;;;;;;;;;;;;;;11.71;89.38;101179.69;4991088;28;19961;-74
2022/11/03 01:49:54;;;;;;;;;;;;;;;11.71;89.56;101174.44;4978923;28;19968;-74
2022/11/03 01:52:39;;;;;;;;;;;;;;;11.71;89.62;101166.56;4983379;28;19917;-74
2022/11/03 01:55:12;;;;;;;;;;;;;;;11.72;89.61;101167.41;4997780;28;20016;-74
2022/11/03 01:57:44;;;;;;;;;;;;;;;11.72;89.75;101160.38;4991761;28;19928;-74
2022/11/03 02:00:10;;;;;;;;;;;;;;;11.72;89.83;101160.38;4978891;28;20001;-74
2022/11/03 02:05:11;;;;;;;;;;;;;;;11.72;89.68;101156.91;4979972;28;20194;-74
2022/11/03 02:07:45;;;;;;;;;;;;;;;11.74;89.79;101155.06;4995522;28;20232;-75
2022/11/03 02:10:11;;;;;;;;;;;;;;;11.75;90.24;101141.06;4977410;28;20188;-74
2022/11/03 02:12:36;;;;;;;;;;;;;;;11.74;90.28;101134.09;4960037;28;19949;-74
2022/11/03 02:15:04;;;;;;;;;;;;;;;11.75;90.11;101135.81;4974098;28;19968;-74
2022/11/03 02:17:30;;;;;;;;;;;;;;;11.75;90.07;101134.94;4997404;28;20012;-74
2022/11/03 02:19:58;;;;;;;;;;;;;;;11.75;90.36;101130.56;4963135;28;19926;-74
2022/11/03 02:22:29;;;;;;;;;;;;;;;11.75;90.25;101120.06;4977082;28;20157;-74
2022/11/03 02:25:12;;;;;;;;;;;;;;;11.76;90.51;101115.66;4977922;28;20041;-74
2022/11/03 02:27:38;;;;;;;;;;;;;;;11.76;90.49;101107.78;4977871;28;19942;-74
2022/11/03 02:30:03;;;;;;;;;;;;;;;11.77;90.54;101106.84;4978554;28;20379;-74
2022/11/03 02:32:36;;;;;;;;;;;;;;;11.77;90.57;101098.97;4978099;28;20013;-74
2022/11/03 02:35:34;;;;;;;;;;;;;;;11.76;90.55;101095.50;4977955;28;19914;-74
2022/11/03 02:38:02;;;;;;;;;;;;;;;11.77;90.41;101096.34;4936124;28;19917;-74
2022/11/03 02:40:30;;;;;;;;;;;;;;;11.77;90.56;101093.72;4982004;28;20161;-74
2022/11/03 02:42:57;;;;;;;;;;;;;;;11.78;90.74;101092.84;4981957;28;19906;-74
2022/11/03 02:45:24;;;;;;;;;;;;;;;11.77;90.89;101078.00;4982424;28;19910;-74
2022/11/03 02:47:50;;;;;;;;;;;;;;;11.79;91.02;101070.91;4981726;28;19985;-74
2022/11/03 02:50:16;;;;;;;;;;;;;;;11.78;90.81;101075.31;4982065;28;19922;-74
2022/11/03 02:52:42;;;;;;;;;;;;;;;11.79;90.98;101063.03;4981637;28;19977;-74
2022/11/03 02:55:10;;;;;;;;;;;;;;;11.79;91.28;101061.28;4981982;28;19910;-74
2022/11/03 02:57:39;;;;;;;;;;;;;;;11.80;91.23;101059.50;4981545;28;19922;-74
2022/11/03 03:00:05;;;;;;;;;;;;;;;11.80;91.20;101056.88;4980816;28;19918;-74
2022/11/03 03:02:49;;;;;;;;;;;;;;;11.80;91.08;101038.50;4981815;28;20064;-74
2022/11/03 03:05:16;;;;;;;;;;;;;;;11.80;91.24;101036.72;4981268;28;19917;-74
2022/11/03 03:07:44;;;;;;;;;;;;;;;11.80;90.94;101047.22;4964021;28;19980;-74
2022/11/03 03:10:10;;;;;;;;;;;;;;;11.81;91.20;101032.38;4964468;28;19916;-74
2022/11/03 03:12:38;;;;;;;;;;;;;;;11.80;91.28;101035.88;4980209;28;20237;-74
2022/11/03 03:15:05;;;;;;;;;;;;;;;11.80;91.12;101028.03;4978871;28;20358;-74
2022/11/03 03:17:35;;;;;;;;;;;;;;;11.80;91.50;101034.09;4962260;29;20109;-74
2022/11/03 03:20:06;;;;;;;;;;;;;;;11.80;91.15;101022.78;4997015;28;19925;-74
2022/11/03 03:22:35;;;;;;;;;;;;;;;11.81;91.52;101021.88;5001012;28;19935;-74
2022/11/03 03:25:04;;;;;;;;;;;;;;;11.80;91.24;101023.63;5000407;28;19923;-75
2022/11/03 03:27:30;;;;;;;;;;;;;;;11.80;91.29;101015.75;5000819;28;20132;-74
2022/11/03 03:29:59;;;;;;;;;;;;;;;11.79;91.18;101021.94;4982426;28;19921;-74
2022/11/03 03:32:26;;;;;;;;;;;;;;;11.80;91.60;101015.75;4983407;28;20149;-73
2022/11/03 03:34:53;;;;;;;;;;;;;;;11.81;91.57;101012.22;5000577;28;19979;-74
2022/11/03 03:37:20;;;;;;;;;;;;;;;11.82;91.68;101010.44;5000560;28;20221;-74
2022/11/03 03:39:47;;;;;;;;;;;;;;;11.83;91.77;101006.91;4998649;28;19925;-74
2022/11/03 03:42:13;;;;;;;;;;;;;;;11.81;91.85;101008.75;5000532;28;19910;-74
2022/11/03 03:44:40;;;;;;;;;;;;;;;11.81;91.36;101008.75;4982323;28;19922;-74
2022/11/03 03:47:09;;;;;;;;;;;;;;;11.81;91.34;100999.09;5000367;28;19988;-74
2022/11/03 03:49:34;;;;;;;;;;;;;;;11.81;91.21;101003.50;4982355;28;20244;-73
2022/11/03 03:52:00;;;;;;;;;;;;;;;11.81;91.27;100998.25;4999620;28;19921;-73
2022/11/03 03:54:25;;;;;;;;;;;;;;;11.81;91.24;100990.38;4982842;28;19921;-73
2022/11/03 03:56:55;;;;;;;;;;;;;;;11.81;91.61;100987.75;4982162;28;19918;-73
2022/11/03 03:59:20;;;;;;;;;;;;;;;11.81;91.78;100988.59;5000234;28;19920;-73
2022/11/03 04:01:45;;;;;;;;;;;;;;;11.82;91.65;100992.06;4982170;28;20128;-73
2022/11/03 04:04:10;;;;;;;;;;;;;;;11.81;91.64;100985.97;4982511;28;20149;-73
2022/11/03 04:06:35;;;;;;;;;;;;;;;11.81;91.28;100985.97;4998503;28;19925;-73
2022/11/03 04:09:01;;;;;;;;;;;;;;;11.83;91.69;100993.78;4999838;28;19941;-73
2022/11/03 04:22:22;;;;;;;;;;;;;;;11.83;91.66;100976.25;4998855;28;19944;-73
2022/11/03 04:24:49;;;;;;;;;;;;;;;11.83;91.35;100981.50;4999215;28;19909;-73
2022/11/03 04:27:14;;;;;;;;;;;;;;;11.81;91.21;100975.47;4982086;28;20091;-73
2022/11/03 04:29:39;;;;;;;;;;;;;;;11.82;91.62;100960.56;4998415;28;20104;-73
2022/11/03 04:32:15;;;;;;;;;;;;;;;11.81;91.89;100962.34;4981848;28;19910;-73
2022/11/03 04:34:41;;;;;;;;;;;;;;;11.83;91.66;100964.91;4998591;28;20214;-73
2022/11/03 04:37:11;;;;;;;;;;;;;;;11.82;91.59;100955.31;4999689;28;19924;-73
2022/11/03 04:39:36;;;;;;;;;;;;;;;11.83;91.98;100960.50;4998888;28;20081;-73
2022/11/03 04:42:01;;;;;;;;;;;;;;;11.83;91.82;100952.66;4999883;28;19920;-73
2022/11/03 04:44:27;;;;;;;;;;;;;;;11.83;91.72;100951.81;4998998;28;20270;-73
2022/11/03 04:46:52;;;;;;;;;;;;;;;11.83;91.95;100943.94;4998477;28;19914;-73
2022/11/03 04:49:21;;;;;;;;;;;;;;;11.81;91.32;100944.00;4981641;28;19913;-73
2022/11/03 04:51:46;;;;;;;;;;;;;;;11.81;91.47;100941.38;4998800;28;20251;-73
2022/11/03 04:54:14;;;;;;;;;;;;;;;11.81;91.42;100932.66;4998899;28;19925;-73
2022/11/03 04:56:40;;;;;;;;;;;;;;;11.81;91.66;100937.91;4998805;28;19917;-72
2022/11/03 04:59:09;;;;;;;;;;;;;;;11.82;91.87;100918.59;4998926;28;19916;-73
2022/11/03 05:01:35;;;;;;;;;;;;;;;11.82;91.83;100923.84;4980609;28;19917;-74
2022/11/03 05:04:00;;;;;;;;;;;;;;;11.84;91.90;100914.13;4998231;28;19917;-73
2022/11/03 05:06:26;;;;;;;;;;;;;;;11.83;92.18;100915.06;5014299;28;19952;-73
2022/11/03 05:08:54;;;;;;;;;;;;;;;11.83;91.88;100909.81;4998417;28;19918;-73
2022/11/03 05:11:25;;;;;;;;;;;;;;;11.83;91.91;100896.69;4999110;28;19947;-73
2022/11/03 05:13:51;;;;;;;;;;;;;;;11.83;92.23;100896.69;4998175;28;20101;-73
2022/11/03 05:16:16;;;;;;;;;;;;;;;11.85;92.04;100894.84;4998794;28;19914;-73
2022/11/03 05:18:43;;;;;;;;;;;;;;;11.85;92.25;100894.84;4997550;28;19922;-73
2022/11/03 05:21:11;;;;;;;;;;;;;;;11.86;92.37;100893.91;4981244;28;19917;-73
2022/11/03 05:23:41;;;;;;;;;;;;;;;11.85;92.21;100890.44;4997759;28;19918;-73
2022/11/03 05:26:12;;;;;;;;;;;;;;;11.86;92.22;100894.78;4990391;28;19984;-73
2022/11/03 05:28:39;;;;;;;;;;;;;;;11.87;92.13;100879.88;4997885;28;19920;-73
2022/11/03 05:31:19;;;;;;;;;;;;;;;11.88;92.50;100871.09;4997811;28;19914;-73
2022/11/03 05:33:46;;;;;;;;;;;;;;;11.87;92.36;100867.59;4980293;28;19961;-73
2022/11/03 05:36:13;;;;;;;;;;;;;;;11.89;92.48;100867.53;4980726;28;20313;-73
2022/11/03 05:38:38;;;;;;;;;;;;;;;11.89;92.77;100862.28;4997647;28;19925;-73
2022/11/03 05:41:24;;;;;;;;;;;;;;;11.90;92.81;100861.41;4997627;28;19920;-73
2022/11/03 05:43:59;;;;;;;;;;;;;;;11.90;92.54;100862.25;4979718;28;19917;-73
2022/11/03 05:46:26;;;;;;;;;;;;;;;11.91;92.57;100860.47;4998203;28;19921;-73
2022/11/03 05:48:51;;;;;;;;;;;;;;;11.91;93.02;100855.22;4980099;28;20009;-73
2022/11/03 05:51:21;;;;;;;;;;;;;;;11.91;93.10;100847.34;4998172;28;19988;-73
2022/11/03 05:53:48;;;;;;;;;;;;;;;11.92;93.05;100849.06;4997457;28;19917;-73
2022/11/03 05:56:17;;;;;;;;;;;;;;;11.93;93.12;100849.91;4997820;28;20102;-73
2022/11/03 05:58:43;;;;;;;;;;;;;;;11.93;92.93;100852.53;4995489;28;19910;-73
2022/11/03 06:01:15;;;;;;;;;;;;;;;11.93;92.78;100853.38;4982595;28;19917;-73
2022/11/03 06:03:40;;;;;;;;;;;;;;;11.93;92.73;100850.75;4979890;28;19924;-73
2022/11/03 06:06:23;;;;;;;;;;;;;;;11.94;92.98;100846.38;4994647;28;19918;-73
2022/11/03 06:08:49;;;;;;;;;;;;;;;11.94;93.12;100846.38;4997423;28;19952;-73
2022/11/03 06:11:25;;;;;;;;;;;;;;;11.93;93.19;100839.41;4997765;28;19922;-73
2022/11/03 06:13:51;;;;;;;;;;;;;;;11.93;93.19;100829.75;4978654;28;19921;-73
2022/11/03 06:16:32;;;;;;;;;;;;;;;11.94;93.33;100841.13;4994897;28;19964;-73
2022/11/03 06:18:59;;;;;;;;;;;;;;;11.94;93.03;100835.88;4993734;28;20297;-73
2022/11/03 06:21:25;;;;;;;;;;;;;;;11.94;93.22;100834.09;4970757;28;19925;-73
2022/11/03 06:23:51;;;;;;;;;;;;;;;11.95;93.17;100827.94;4979708;28;19921;-73
2022/11/03 06:26:21;;;;;;;;;;;;;;;11.94;93.38;100828.84;4997414;28;20300;-73
2022/11/03 06:28:46;;;;;;;;;;;;;;;11.95;93.21;100819.19;4997089;28;19921;-73
2022/11/03 06:31:18;;;;;;;;;;;;;;;11.94;93.04;100810.47;5002385;28;20238;-73
2022/11/03 06:33:43;;;;;;;;;;;;;;;11.95;93.10;100817.44;5000682;28;19925;-73
2022/11/03 06:36:17;;;;;;;;;;;;;;;11.96;93.45;100820.91;5012345;28;20000;-73
2022/11/03 06:38:43;;;;;;;;;;;;;;;11.95;93.59;100814.81;4996893;28;19906;-73
2022/11/03 06:41:38;;;;;;;;;;;;;;;11.95;93.32;100814.81;4997425;28;20078;-73
2022/11/03 06:44:29;;;;;;;;;;;;;;;11.96;93.45;100813.03;4989073;28;20100;-73
2022/11/03 06:46:55;;;;;;;;;;;;;;;11.95;93.44;100806.06;4974001;28;19992;-73
2022/11/03 06:49:26;;;;;;;;;;;;;;;11.95;93.43;100796.44;4995313;28;20201;-73
2022/11/03 06:51:51;;;;;;;;;;;;;;;11.95;93.26;100785.94;4991819;28;19977;-73
2022/11/03 06:54:16;;;;;;;;;;;;;;;11.96;92.85;100798.13;4992411;28;20144;-73
2022/11/03 06:56:41;;;;;;;;;;;;;;;11.94;93.18;100797.38;4999434;28;20228;-73
2022/11/03 06:59:09;;;;;;;;;;;;;;;11.96;92.92;100797.28;4995882;28;19937;-73
2022/11/03 07:01:35;;;;;;;;;;;;;;;11.94;92.67;100791.28;4995903;28;19920;-73
2022/11/03 07:04:18;;;;;;;;;;;;;;;11.94;92.80;100799.16;4979637;28;19941;-73
2022/11/03 07:06:44;;;;;;;;;;;;;;;11.93;93.10;100795.66;4996315;28;19914;-73
2022/11/03 07:09:28;;;;;;;;;;;;;;;11.94;92.86;100788.66;4997514;28;19924;-73
2022/11/03 07:11:58;;;;;;;;;;;;;;;11.93;92.81;100787.78;4994502;28;19909;-73
2022/11/03 07:14:27;;;;;;;;;;;;;;;11.95;93.30;100790.31;4997525;28;19906;-73
2022/11/03 07:16:54;;;;;;;;;;;;;;;11.95;93.16;100782.47;4977453;28;20134;-73
2022/11/03 07:19:23;;;;;;;;;;;;;;;11.94;93.33;100779.00;4993426;28;19921;-73
2022/11/03 07:21:53;;;;;;;;;;;;;;;11.94;93.25;100773.75;4996596;28;19964;-73
2022/11/03 07:24:24;;;;;;;;;;;;;;;11.95;93.43;100775.47;4979144;28;19922;-73
2022/11/03 07:26:55;;;;;;;;;;;;;;;11.95;93.45;100775.47;4998945;28;20431;-73
2022/11/03 07:29:21;;;;;;;;;;;;;;;11.95;93.28;100772.84;5000749;28;19943;-72
2022/11/03 07:31:48;;;;;;;;;;;;;;;11.96;93.56;100787.63;5000285;28;20108;-73
2022/11/03 07:34:18;;;;;;;;;;;;;;;11.96;93.43;100790.25;4996939;28;19938;-73
2022/11/03 07:36:44;;;;;;;;;;;;;;;11.97;93.25;100775.34;4993912;28;20228;-73
2022/11/03 07:39:12;;;;;;;;;;;;;;;11.97;93.01;100784.09;5000888;28;19917;-73
2022/11/03 07:41:38;;;;;;;;;;;;;;;11.97;92.93;100783.22;5004290;28;19924;-73
2022/11/03 07:44:04;;;;;;;;;;;;;;;11.97;93.33;100781.47;4963339;28;19922;-72
2022/11/03 07:46:30;;;;;;;;;;;;;;;11.98;93.29;100784.94;5005073;28;19940;-73
2022/11/03 07:48:56;;;;;;;;;;;;;;;11.97;93.05;100783.22;4987957;28;20514;-73
2022/11/03 07:51:27;;;;;;;;;;;;;;;11.98;93.32;100767.41;5002703;28;20722;-73
2022/11/03 07:53:55;;;;;;;;;;;;;;;11.99;93.36;100771.75;4997415;28;19995;-73
2022/11/03 07:56:24;;;;;;;;;;;;;;;11.99;93.33;100760.38;5001270;28;20348;-73
2022/11/03 07:58:53;;;;;;;;;;;;;;;12.00;93.10;100770.81;4976993;28;19963;-73
2022/11/03 08:01:21;;;;;;;;;;;;;;;11.99;93.38;100763.88;4982470;28;19971;-73
2022/11/03 08:03:47;;;;;;;;;;;;;;;12.00;93.07;100748.97;4996151;28;19917;-73
2022/11/03 08:06:12;;;;;;;;;;;;;;;12.01;93.29;100745.44;5000726;28;19925;-73
2022/11/03 08:08:38;;;;;;;;;;;;;;;12.00;93.38;100736.69;5002216;28;19976;-73
2022/11/03 08:11:03;;;;;;;;;;;;;;;12.01;93.26;100733.16;4996694;28;20294;-73
2022/11/03 08:13:29;;;;;;;;;;;;;;;12.02;93.55;100729.59;4999433;28;19917;-73
2022/11/03 08:15:55;;;;;;;;;;;;;;;12.02;93.69;100716.47;4994687;28;19925;-73
2022/11/03 08:18:20;;;;;;;;;;;;;;;12.02;93.58;100713.84;4996714;28;20251;-73
2022/11/03 08:20:45;;;;;;;;;;;;;;;12.03;93.73;100719.97;5007350;28;20128;-73
2022/11/03 08:23:11;;;;;;;;;;;;;;;12.03;93.76;100719.97;4996619;28;20209;-73
2022/11/03 08:25:36;;;;;;;;;;;;;;;12.03;93.67;100707.69;4997946;28;19937;-73
2022/11/03 08:28:02;;;;;;;;;;;;;;;12.03;93.79;100691.09;4982049;28;19914;-73
2022/11/03 08:30:28;;;;;;;;;;;;;;;12.05;93.68;100697.94;5016548;28;20220;-73
2022/11/03 08:32:53;;;;;;;;;;;;;;;12.04;93.83;100691.03;4990249;28;19953;-73
2022/11/03 08:35:18;;;;;;;;;;;;;;;12.05;93.77;100681.38;4983075;28;20187;-73
2022/11/03 08:37:44;;;;;;;;;;;;;;;12.05;94.06;100671.72;4992546;28;19933;-73
2022/11/03 08:40:09;;;;;;;;;;;;;;;12.05;93.94;100661.22;4988879;28;19988;-73
2022/11/03 08:42:34;;;;;;;;;;;;;;;12.05;93.77;100653.34;4987804;28;19922;-73
2022/11/03 08:45:00;;;;;;;;;;;;;;;12.06;93.71;100646.31;4992590;28;19920;-73
2022/11/03 08:47:25;;;;;;;;;;;;;;;12.07;94.00;100648.00;5000483;28;20205;-73
2022/11/03 08:49:51;;;;;;;;;;;;;;;12.08;94.08;100644.47;5005595;28;20200;-72
2022/11/03 08:52:16;;;;;;;;;;;;;;;12.08;94.05;100634.81;5008095;28;20007;-73
2022/11/03 08:54:41;;;;;;;;;;;;;;;12.09;93.90;100630.41;5004010;28;20144;-73
2022/11/03 08:57:06;;;;;;;;;;;;;;;12.09;93.90;100636.50;5013737;28;19929;-73
2022/11/03 08:59:32;;;;;;;;;;;;;;;12.09;94.14;100628.63;4990923;28;19981;-73
2022/11/03 09:01:57;;;;;;;;;;;;;;;12.10;93.99;100625.09;4976510;28;19928;-73
2022/11/03 09:04:22;;;;;;;;;;;;;;;12.11;93.93;100620.66;5010800;28;19910;-73
2022/11/03 09:06:47;;;;;;;;;;;;;;;12.12;93.81;100604.00;5000128;28;20263;-73
2022/11/03 09:09:13;;;;;;;;;;;;;;;12.13;93.69;100617.97;4997159;28;19930;-73
2022/11/03 09:11:38;;;;;;;;;;;;;;;12.14;93.71;100606.56;4998091;28;19979;-73
2022/11/03 09:14:03;;;;;;;;;;;;;;;12.14;94.00;100599.53;4992124;28;20232;-73
2022/11/03 09:16:28;;;;;;;;;;;;;;;12.15;93.71;100592.50;4987204;28;19932;-73
2022/11/03 09:18:54;;;;;;;;;;;;;;;12.16;93.72;100589.78;5005066;28;19944;-73
2022/11/03 09:21:19;;;;;;;;;;;;;;;12.17;93.81;100595.88;5002808;28;19922;-73
2022/11/03 09:23:44;;;;;;;;;;;;;;;12.17;93.72;100583.63;4996995;28;20311;-73
2022/11/03 09:26:10;;;;;;;;;;;;;;;12.18;93.99;100579.22;5002760;28;19918;-73
2022/11/03 09:28:35;;;;;;;;;;;;;;;12.18;93.89;100572.19;4993989;28;19929;-73
2022/11/03 09:31:00;;;;;;;;;;;;;;;12.19;94.01;100578.31;4996213;28;19918;-73
2022/11/03 09:33:26;;;;;;;;;;;;;;;12.20;93.81;100569.47;5010685;28;19921;-73
2022/11/03 09:35:51;;;;;;;;;;;;;;;12.21;94.07;100572.03;4997745;28;20022;-73
2022/11/03 09:38:16;;;;;;;;;;;;;;;12.21;94.24;100569.41;5003580;28;19949;-73
2022/11/03 09:40:42;;;;;;;;;;;;;;;12.23;93.86;100569.34;5007656;28;19917;-73
2022/11/03 09:43:07;;;;;;;;;;;;;;;12.24;93.75;100568.38;4981615;28;20285;-73
2022/11/03 09:45:32;;;;;;;;;;;;;;;12.25;93.73;100565.69;4995839;28;19940;-73
2022/11/03 09:47:58;;;;;;;;;;;;;;;12.26;93.82;100556.03;5004617;28;19921;-73
2022/11/03 09:50:23;;;;;;;;;;;;;;;12.27;93.77;100536.72;5003165;28;20176;-73
2022/11/03 09:52:51;;;;;;;;;;;;;;;12.27;93.50;100548.06;5004173;28;20212;-73
2022/11/03 09:55:18;;;;;;;;;;;;;;;12.29;93.42;100540.13;5002027;28;19916;-73
2022/11/03 09:57:44;;;;;;;;;;;;;;;12.29;93.48;100533.09;4995499;28;20125;-73
2022/11/03 10:00:17;;;;;;;;;;;;;;;12.29;93.19;100533.09;4995402;28;19920;-73
2022/11/03 10:02:42;;;;;;;;;;;;;;;12.31;93.29;100527.75;4984631;28;20212;-73
2022/11/03 10:05:11;;;;;;;;;;;;;;;12.32;92.95;100523.38;4992913;28;19917;-73
2022/11/03 10:07:36;;;;;;;;;;;;;;;12.33;92.95;100532.94;4999728;28;20176;-73
2022/11/03 10:10:02;;;;;;;;;;;;;;;12.33;93.11;100525.06;4998732;28;19919;-73
2022/11/03 10:12:29;;;;;;;;;;;;;;;12.34;93.13;100514.47;4992165;28;19921;-73
2022/11/03 10:14:55;;;;;;;;;;;;;;;12.34;93.13;100509.22;4976449;28;19988;-73
2022/11/03 10:17:22;;;;;;;;;;;;;;;12.36;93.13;100509.16;4997897;28;19965;-73
2022/11/03 10:19:49;;;;;;;;;;;;;;;12.36;92.73;100496.00;4989383;28;19920;-73
2022/11/03 10:22:15;;;;;;;;;;;;;;;12.36;92.44;100486.34;4978911;28;19916;-73
2022/11/03 10:24:40;;;;;;;;;;;;;;;12.38;92.32;100478.41;4995652;28;19977;-73
2022/11/03 10:27:19;;;;;;;;;;;;;;;12.37;92.44;100476.69;4996600;28;19922;-72
2022/11/03 10:29:45;;;;;;;;;;;;;;;12.38;92.46;100473.97;4991454;28;19913;-72
2022/11/03 10:32:27;;;;;;;;;;;;;;;12.39;92.33;100480.94;5002413;28;19941;-72
2022/11/03 10:34:52;;;;;;;;;;;;;;;12.40;92.09;100477.38;5002056;28;19917;-72
2022/11/03 10:37:21;;;;;;;;;;;;;;;12.40;92.19;100466.88;4998726;28;19972;-72
2022/11/03 10:39:51;;;;;;;;;;;;;;;12.42;92.10;100464.16;5001299;28;19920;-72
2022/11/03 10:42:20;;;;;;;;;;;;;;;12.43;91.94;100455.38;5012950;28;20513;-72
2022/11/03 10:44:46;;;;;;;;;;;;;;;12.43;92.04;100447.47;4999697;28;20173;-72
2022/11/03 10:47:21;;;;;;;;;;;;;;;12.43;92.33;100435.19;5008989;28;19914;-72
2022/11/03 10:49:47;;;;;;;;;;;;;;;12.44;92.21;100436.91;4997108;28;19917;-72
2022/11/03 10:52:20;;;;;;;;;;;;;;;12.45;91.93;100443.00;5023710;28;19932;-72
2022/11/03 10:54:46;;;;;;;;;;;;;;;12.46;91.89;100435.03;5014828;28;19924;-71
2022/11/03 10:57:11;;;;;;;;;;;;;;;12.48;91.89;100438.41;5002292;28;19921;-72
2022/11/03 10:59:37;;;;;;;;;;;;;;;12.50;91.52;100430.47;4995032;28;20008;-72
2022/11/03 11:02:10;;;;;;;;;;;;;;;12.51;91.88;100412.91;5001041;28;19917;-72
2022/11/03 11:04:35;;;;;;;;;;;;;;;12.52;91.86;100433.00;4997222;28;19952;-72
2022/11/03 11:07:00;;;;;;;;;;;;;;;12.53;91.58;100424.19;4996923;28;19925;-72
2022/11/03 11:09:27;;;;;;;;;;;;;;;12.54;91.56;100431.13;4983592;28;20220;-72
2022/11/03 11:11:58;;;;;;;;;;;;;;;12.55;91.49;100417.06;5001249;28;20304;-72
2022/11/03 11:14:27;;;;;;;;;;;;;;;12.55;91.45;100419.69;5001804;28;20193;-72
2022/11/03 11:16:53;;;;;;;;;;;;;;;12.56;91.31;100418.75;4999549;28;19964;-72
2022/11/03 11:19:19;;;;;;;;;;;;;;;12.56;91.25;100419.59;4996057;28;19954;-72
2022/11/03 11:21:46;;;;;;;;;;;;;;;12.57;91.09;100399.44;4978321;28;19933;-72
2022/11/03 11:24:12;;;;;;;;;;;;;;;12.58;90.91;100388.00;4988569;28;19913;-72
2022/11/03 11:26:38;;;;;;;;;;;;;;;12.59;90.99;100392.34;4963001;28;19988;-72
2022/11/03 11:29:14;;;;;;;;;;;;;;;12.58;90.56;100390.63;5004929;28;19914;-72
2022/11/03 11:31:42;;;;;;;;;;;;;;;12.59;90.99;100380.03;4980796;28;20220;-72
2022/11/03 11:34:08;;;;;;;;;;;;;;;12.60;90.90;100367.75;4989204;28;20045;-72
2022/11/03 11:36:34;;;;;;;;;;;;;;;12.62;90.78;100368.50;4996612;28;20206;-72
2022/11/03 11:39:00;;;;;;;;;;;;;;;12.64;90.96;100361.38;4984195;28;20292;-72
2022/11/03 11:41:44;;;;;;;;;;;;;;;12.64;90.59;100359.63;4993829;28;19918;-72
2022/11/03 11:44:28;;;;;;;;;;;;;;;12.65;90.84;100348.16;5002796;28;19945;-72
2022/11/03 11:46:55;;;;;;;;;;;;;;;12.66;90.70;100341.97;4978895;28;19920;-72
2022/11/03 11:49:20;;;;;;;;;;;;;;;12.67;90.63;100334.94;4991524;28;20029;-72
2022/11/03 11:51:46;;;;;;;;;;;;;;;12.67;90.18;100327.91;4998511;28;19984;-72
2022/11/03 11:54:15;;;;;;;;;;;;;;;12.69;90.56;100330.44;4985191;28;19918;-72
2022/11/03 11:56:44;;;;;;;;;;;;;;;12.70;90.43;100315.50;4982130;28;20017;-72
2022/11/03 11:59:18;;;;;;;;;;;;;;;12.71;90.76;100304.06;4982357;28;19921;-72
2022/11/03 12:01:43;;;;;;;;;;;;;;;12.71;90.81;100302.28;4998304;28;19918;-72
2022/11/03 12:04:21;;;;;;;;;;;;;;;12.72;90.57;100295.28;4983076;28;19924;-72
2022/11/03 12:06:46;;;;;;;;;;;;;;;12.72;90.61;100277.72;4983083;28;19924;-72
2022/11/03 12:09:12;;;;;;;;;;;;;;;12.73;89.94;100274.13;4980264;28;20207;-72
2022/11/03 12:12:03;;;;;;;;;;;;;;;12.74;90.23;100267.13;4992215;28;20286;-72
2022/11/03 12:14:34;;;;;;;;;;;;;;;12.75;90.41;100279.31;4976306;28;20105;-72
2022/11/03 12:17:15;;;;;;;;;;;;;;;12.76;90.39;100292.38;4978118;28;20097;-72
2022/11/03 12:19:48;;;;;;;;;;;;;;;12.76;90.80;100284.47;4979566;28;20141;-72
2022/11/03 12:22:22;;;;;;;;;;;;;;;12.79;90.75;100279.06;4978204;28;19914;-72
2022/11/03 12:24:48;;;;;;;;;;;;;;;12.79;90.58;100271.16;4976545;28;20213;-72
2022/11/03 12:27:22;;;;;;;;;;;;;;;12.80;90.53;100266.75;4962756;28;19917;-72
2022/11/03 12:29:48;;;;;;;;;;;;;;;12.81;90.32;100266.66;4978140;28;19996;-72
2022/11/03 12:32:13;;;;;;;;;;;;;;;12.81;89.93;100258.78;4981677;28;19956;-72
2022/11/03 12:34:38;;;;;;;;;;;;;;;12.83;90.13;100246.41;4978436;28;19968;-71
2022/11/03 12:37:04;;;;;;;;;;;;;;;12.84;90.04;100237.59;4982864;28;20228;-72
2022/11/03 12:39:29;;;;;;;;;;;;;;;12.87;90.26;100233.91;4981029;28;19997;-72
2022/11/03 12:41:54;;;;;;;;;;;;;;;12.88;89.92;100227.75;4977112;28;19953;-72
2022/11/03 12:44:20;;;;;;;;;;;;;;;12.91;89.75;100218.81;4979714;28;19922;-72
2022/11/03 12:46:45;;;;;;;;;;;;;;;12.94;89.59;100216.84;4963347;28;19988;-73
2022/11/03 12:49:11;;;;;;;;;;;;;;;12.97;89.58;100207.91;4944419;28;19922;-72
2022/11/03 12:51:36;;;;;;;;;;;;;;;13.01;89.62;100204.19;4994269;28;19917;-71
2022/11/03 12:54:01;;;;;;;;;;;;;;;13.04;89.88;100194.34;4977783;28;19914;-72
2022/11/03 12:56:26;;;;;;;;;;;;;;;13.06;89.78;100197.72;4980608;28;20255;-72